Time;durP1;ratioP1;P1;durP2;ratioP2;P2;SDS_P1;SDS_P2;PMS_P1;PMS_P2;Temp;Humidity;BMP_temperature;BMP_pressure;BME280_temperature;BME280_humidity;BME280_pressure;Samples;Min_cycle;Max_cycle;Signal;HPM_P1;HPM_P2
2022/01/10 00:00:51;;;;;;;12.53;5.07;;;0.60;99.90;;;;;;4951862;28;20037;-75
2022/01/10 00:03:18;;;;;;;12.53;4.83;;;0.60;99.90;;;;;;4945407;28;20038;-79
2022/01/10 00:05:44;;;;;;;10.77;4.83;;;0.60;99.90;;;;;;4950647;28;20034;-77
2022/01/10 00:08:14;;;;;;;11.23;5.23;;;0.60;99.90;;;;;;4952551;28;20027;-77
2022/01/10 00:10:42;;;;;;;11.23;4.83;;;0.60;99.90;;;;;;4964765;28;20046;-74
2022/01/10 00:13:08;;;;;;;14.47;6.07;;;0.60;99.90;;;;;;4944891;28;20023;-75
2022/01/10 00:15:35;;;;;;;14.60;7.03;;;0.60;99.90;;;;;;4965707;28;20019;-76
2022/01/10 00:18:02;;;;;;;33.67;16.13;;;0.60;99.90;;;;;;4947916;28;20043;-75
2022/01/10 00:20:29;;;;;;;16.40;8.33;;;0.60;99.90;;;;;;4949954;28;20517;-76
2022/01/10 00:22:55;;;;;;;15.33;8.63;;;0.60;99.90;;;;;;4946200;28;20035;-77
2022/01/10 00:25:23;;;;;;;13.67;7.20;;;0.60;99.90;;;;;;4966664;28;20030;-75
2022/01/10 00:27:52;;;;;;;13.77;6.87;;;0.60;99.90;;;;;;4966441;28;20370;-75
2022/01/10 00:30:21;;;;;;;13.00;6.37;;;0.60;99.90;;;;;;4964538;28;20066;-75
2022/01/10 00:32:48;;;;;;;11.37;5.97;;;0.60;99.90;;;;;;4948504;28;20031;-75
2022/01/10 00:35:15;;;;;;;14.13;6.27;;;0.60;99.90;;;;;;4951496;28;20899;-75
2022/01/10 00:37:43;;;;;;;14.50;5.77;;;0.50;99.90;;;;;;4952225;28;20852;-75
2022/01/10 00:40:11;;;;;;;14.60;5.90;;;0.50;99.90;;;;;;4951694;28;20043;-75
2022/01/10 00:42:38;;;;;;;10.37;5.43;;;0.50;99.90;;;;;;4946842;28;20030;-75
2022/01/10 00:45:13;;;;;;;15.70;6.27;;;0.50;99.90;;;;;;4952583;28;20038;-75
2022/01/10 00:47:40;;;;;;;9.07;5.10;;;0.50;99.90;;;;;;4966244;28;20035;-75
2022/01/10 00:50:07;;;;;;;12.63;6.00;;;0.50;99.90;;;;;;4953349;28;20039;-75
2022/01/10 00:52:33;;;;;;;11.17;5.40;;;0.50;99.90;;;;;;4950356;28;20015;-75
2022/01/10 00:55:00;;;;;;;13.47;5.73;;;0.50;99.90;;;;;;4955481;28;20027;-75
2022/01/10 00:57:26;;;;;;;12.70;5.83;;;0.50;99.90;;;;;;4971003;28;20018;-75
2022/01/10 00:59:53;;;;;;;10.93;5.50;;;0.50;99.90;;;;;;4954297;28;20019;-75
2022/01/10 01:02:21;;;;;;;9.40;5.13;;;0.40;99.90;;;;;;4951965;28;20034;-75
2022/01/10 01:04:48;;;;;;;11.07;5.10;;;0.40;99.90;;;;;;4954056;28;20035;-75
2022/01/10 01:07:14;;;;;;;11.93;5.40;;;0.40;99.90;;;;;;4956494;28;20030;-75
2022/01/10 01:09:45;;;;;;;13.67;6.33;;;0.40;99.90;;;;;;4942351;28;20031;-75
2022/01/10 01:12:19;;;;;;;9.87;5.57;;;0.40;99.90;;;;;;4953764;28;20036;-75
2022/01/10 01:17:32;;;;;;;11.43;5.77;;;0.40;99.90;;;;;;4968976;28;20597;-75
2022/01/10 01:25:12;;;;;;;10.37;4.93;;;0.30;99.90;;;;;;4956244;28;20039;-75
2022/01/10 01:27:41;;;;;;;10.77;5.00;;;0.30;99.90;;;;;;4935788;28;20023;-74
2022/01/10 01:30:09;;;;;;;10.03;5.00;;;0.30;99.90;;;;;;4952185;28;20065;-75
2022/01/10 01:32:37;;;;;;;12.87;5.03;;;0.30;99.90;;;;;;4965306;28;20383;-75
2022/01/10 01:35:07;;;;;;;12.63;6.30;;;0.30;99.90;;;;;;4970752;28;20027;-75
2022/01/10 01:37:36;;;;;;;12.07;6.47;;;0.30;99.90;;;;;;4940380;28;20094;-75
2022/01/10 01:40:04;;;;;;;12.47;6.37;;;0.30;99.90;;;;;;4955822;28;20035;-75
2022/01/10 01:42:37;;;;;;;12.83;6.53;;;0.30;99.90;;;;;;4936539;28;20027;-75
2022/01/10 01:45:09;;;;;;;15.83;7.57;;;0.30;99.90;;;;;;4954847;28;20030;-75
2022/01/10 01:47:35;;;;;;;12.10;6.73;;;0.30;99.90;;;;;;4971915;28;20030;-75
2022/01/10 01:50:07;;;;;;;13.50;7.40;;;0.30;99.90;;;;;;4956880;28;20035;-75
2022/01/10 01:52:34;;;;;;;11.63;6.13;;;0.30;99.90;;;;;;4952010;28;20039;-75
2022/01/10 01:55:01;;;;;;;17.40;7.43;;;0.30;99.90;;;;;;4938625;28;20027;-75
2022/01/10 01:57:28;;;;;;;14.00;6.83;;;0.20;99.90;;;;;;4953513;28;20678;-76
2022/01/10 01:59:55;;;;;;;14.17;6.37;;;0.20;99.90;;;;;;4970362;28;20019;-75
2022/01/10 02:02:21;;;;;;;12.33;6.83;;;0.20;99.90;;;;;;4952686;28;20382;-75
2022/01/10 02:04:48;;;;;;;11.23;6.30;;;0.20;99.90;;;;;;4954183;28;20342;-75
2022/01/10 02:07:16;;;;;;;10.20;5.13;;;0.20;99.90;;;;;;4972087;28;20031;-75
2022/01/10 02:09:43;;;;;;;14.03;6.03;;;0.20;99.90;;;;;;4954871;28;20031;-75
2022/01/10 02:12:10;;;;;;;12.00;6.03;;;0.20;99.90;;;;;;4949456;28;20034;-75
2022/01/10 02:14:40;;;;;;;15.60;6.60;;;0.20;99.90;;;;;;4967264;28;20026;-75
2022/01/10 02:17:07;;;;;;;13.27;6.33;;;0.10;99.90;;;;;;4934558;28;20035;-75
2022/01/10 02:19:52;;;;;;;13.83;6.33;;;0.10;99.90;;;;;;4955820;28;20042;-75
2022/01/10 02:22:18;;;;;;;11.43;6.07;;;0.10;99.90;;;;;;4966805;28;20027;-75
2022/01/10 02:24:59;;;;;;;13.40;6.43;;;0.10;99.90;;;;;;4952678;28;20031;-75
2022/01/10 02:27:26;;;;;;;14.27;7.33;;;0.10;99.90;;;;;;4971114;28;20049;-75
2022/01/10 02:29:53;;;;;;;10.60;6.57;;;0.10;99.90;;;;;;4953498;28;20035;-75
2022/01/10 02:32:20;;;;;;;11.93;6.70;;;0.10;99.90;;;;;;4951154;28;20026;-75
2022/01/10 02:34:47;;;;;;;14.93;6.30;;;0.10;99.90;;;;;;4952577;28;20038;-76
2022/01/10 02:37:36;;;;;;;11.13;6.73;;;0.10;99.90;;;;;;4953288;28;20038;-75
2022/01/10 02:40:08;;;;;;;13.33;5.57;;;0.10;99.90;;;;;;4968404;28;20038;-75
2022/01/10 02:42:36;;;;;;;11.63;6.33;;;0.10;99.90;;;;;;4932178;28;20466;-74
2022/01/10 02:45:03;;;;;;;17.33;7.30;;;0.10;99.90;;;;;;4952795;28;20308;-75
2022/01/10 02:47:31;;;;;;;12.43;6.30;;;0.00;99.90;;;;;;4952401;28;20038;-75
2022/01/10 02:49:58;;;;;;;13.57;6.03;;;0.00;99.90;;;;;;4952103;28;20038;-75
2022/01/10 02:52:25;;;;;;;15.93;7.97;;;0.10;99.90;;;;;;4948978;28;20027;-75
2022/01/10 02:54:55;;;;;;;12.27;8.00;;;0.00;99.90;;;;;;4968758;28;20030;-75
2022/01/10 02:57:22;;;;;;;14.07;6.90;;;0.10;99.90;;;;;;4953528;28;20026;-75
2022/01/10 02:59:49;;;;;;;18.37;7.10;;;0.00;99.90;;;;;;4953262;28;20429;-75
2022/01/10 03:02:22;;;;;;;18.00;8.47;;;0.00;99.90;;;;;;4964199;28;20039;-76
2022/01/10 03:04:51;;;;;;;15.93;8.43;;;0.00;99.90;;;;;;4936019;28;20035;-76
2022/01/10 03:07:22;;;;;;;15.17;8.20;;;0.00;99.90;;;;;;4968475;28;20027;-75
2022/01/10 03:09:50;;;;;;;15.83;7.23;;;0.00;99.90;;;;;;4955720;28;20031;-75
2022/01/10 03:12:17;;;;;;;17.43;8.47;;;-0.10;99.90;;;;;;4966491;28;21233;-75
2022/01/10 03:14:44;;;;;;;14.70;7.93;;;-0.10;99.90;;;;;;4952188;28;20042;-75
2022/01/10 03:17:12;;;;;;;17.70;8.27;;;-0.10;99.90;;;;;;4952973;28;20031;-75
2022/01/10 03:19:39;;;;;;;14.03;8.50;;;-0.10;99.90;;;;;;4954000;28;20712;-75
2022/01/10 03:22:07;;;;;;;14.80;8.63;;;-0.10;99.90;;;;;;4965061;28;20030;-76
2022/01/10 03:24:35;;;;;;;13.20;8.00;;;-0.10;99.90;;;;;;4951551;28;20019;-75
2022/01/10 03:27:02;;;;;;;15.83;8.03;;;-0.10;99.90;;;;;;4950362;28;20027;-75
2022/01/10 03:29:29;;;;;;;15.07;8.67;;;-0.10;99.90;;;;;;4967470;28;20043;-76
2022/01/10 03:31:56;;;;;;;16.40;10.13;;;-0.10;99.90;;;;;;4966993;28;20493;-76
2022/01/10 03:34:22;;;;;;;16.07;8.60;;;-0.10;99.90;;;;;;4952390;28;20267;-76
2022/01/10 03:36:49;;;;;;;15.13;8.57;;;0.00;99.90;;;;;;4955099;28;20023;-76
2022/01/10 03:39:16;;;;;;;16.57;9.13;;;0.00;99.90;;;;;;4952801;28;20023;-76
2022/01/10 03:41:43;;;;;;;17.43;9.40;;;0.10;99.90;;;;;;4936532;28;20034;-76
2022/01/10 03:44:11;;;;;;;15.97;8.07;;;0.10;99.90;;;;;;4950066;28;20031;-76
2022/01/10 03:46:38;;;;;;;19.03;11.70;;;0.20;99.90;;;;;;4951930;28;20378;-76
2022/01/10 03:49:05;;;;;;;18.63;10.40;;;0.20;99.90;;;;;;4954030;28;21380;-76
2022/01/10 03:51:32;;;;;;;22.53;10.60;;;0.30;99.90;;;;;;4954211;28;20470;-76
2022/01/10 03:53:59;;;;;;;20.23;10.57;;;0.30;99.90;;;;;;4949032;28;20034;-75
2022/01/10 03:56:28;;;;;;;16.57;9.37;;;0.30;99.90;;;;;;4935373;28;20030;-75
2022/01/10 03:58:58;;;;;;;14.57;9.27;;;0.30;99.90;;;;;;4968720;28;21385;-76
2022/01/10 04:01:25;;;;;;;19.60;10.50;;;0.30;99.90;;;;;;4952913;28;20613;-76
2022/01/10 04:03:56;;;;;;;17.77;9.70;;;0.30;99.90;;;;;;4949817;28;20026;-76
2022/01/10 04:06:22;;;;;;;20.20;9.93;;;0.20;99.90;;;;;;4953098;28;20042;-76
2022/01/10 04:08:49;;;;;;;18.13;10.27;;;0.20;99.90;;;;;;4954528;28;20026;-76
2022/01/10 04:11:16;;;;;;;24.73;11.70;;;0.20;99.90;;;;;;4954790;28;20035;-76
2022/01/10 04:13:42;;;;;;;20.53;11.90;;;0.10;99.90;;;;;;4951851;28;20489;-76
2022/01/10 04:16:09;;;;;;;20.80;10.77;;;0.10;99.90;;;;;;4935398;28;20501;-76
2022/01/10 04:18:35;;;;;;;18.40;10.60;;;0.10;99.90;;;;;;4936248;28;20022;-76
2022/01/10 04:21:02;;;;;;;20.67;11.37;;;0.10;99.90;;;;;;4952494;28;20027;-76
2022/01/10 04:23:30;;;;;;;20.03;11.80;;;0.10;99.90;;;;;;4931712;28;20348;-76
2022/01/10 04:25:57;;;;;;;21.90;12.30;;;0.10;99.90;;;;;;4952811;28;20045;-76
2022/01/10 04:28:23;;;;;;;23.77;13.27;;;0.10;99.90;;;;;;4956215;28;20018;-75
2022/01/10 04:30:50;;;;;;;24.97;13.43;;;0.10;99.90;;;;;;4956543;28;20355;-75
2022/01/10 04:33:18;;;;;;;26.20;13.47;;;0.10;99.90;;;;;;4954404;28;20386;-76
2022/01/10 04:35:48;;;;;;;20.80;13.40;;;0.20;99.90;;;;;;4955668;28;20054;-76
2022/01/10 04:38:15;;;;;;;28.93;16.23;;;0.30;99.90;;;;;;4955146;28;20034;-76
2022/01/10 04:40:42;;;;;;;40.50;21.10;;;0.30;99.90;;;;;;4941658;28;20019;-76
2022/01/10 04:43:08;;;;;;;29.70;18.30;;;0.40;99.90;;;;;;4936086;28;20651;-76
2022/01/10 04:45:35;;;;;;;26.07;17.20;;;0.40;99.90;;;;;;4956369;28;20023;-76
2022/01/10 04:48:03;;;;;;;28.97;18.50;;;0.40;99.90;;;;;;4953212;28;20023;-76
2022/01/10 04:51:10;;;;;;;29.83;17.03;;;0.40;99.90;;;;;;4957556;28;20513;-76
2022/01/10 04:53:31;;;;;;;27.53;14.47;;;0.40;99.90;;;;;;4951414;28;20043;-76
2022/01/10 04:55:58;;;;;;;28.90;15.83;;;0.50;99.90;;;;;;4953682;28;20018;-76
2022/01/10 04:58:25;;;;;;;33.80;17.27;;;0.50;99.90;;;;;;4953408;28;20027;-75
2022/01/10 05:00:53;;;;;;;29.90;15.97;;;0.50;99.90;;;;;;4957801;28;20038;-76
2022/01/10 05:03:21;;;;;;;26.27;14.27;;;0.60;99.90;;;;;;4952726;28;20374;-75
2022/01/10 05:05:53;;;;;;;27.60;15.53;;;0.60;99.90;;;;;;4938357;28;20030;-76
2022/01/10 05:08:23;;;;;;;30.13;16.77;;;0.60;99.90;;;;;;4953945;28;20024;-76
2022/01/10 05:10:53;;;;;;;32.17;16.63;;;0.70;99.90;;;;;;4956341;28;20023;-76
2022/01/10 05:13:20;;;;;;;27.63;15.73;;;0.70;99.90;;;;;;4952696;28;20034;-76
2022/01/10 05:15:49;;;;;;;28.10;16.20;;;0.70;99.90;;;;;;4939610;28;20391;-76
2022/01/10 05:18:17;;;;;;;29.10;18.03;;;0.70;99.90;;;;;;4956458;28;20036;-76
2022/01/10 05:20:44;;;;;;;30.30;18.67;;;0.80;99.90;;;;;;4939387;28;20019;-76
2022/01/10 05:23:11;;;;;;;31.40;18.47;;;0.80;99.90;;;;;;4949973;28;20046;-76
2022/01/10 05:25:40;;;;;;;32.40;18.93;;;0.80;99.90;;;;;;4955291;28;20537;-75
2022/01/10 05:28:11;;;;;;;35.73;18.93;;;0.80;99.90;;;;;;4957247;28;20034;-76
2022/01/10 05:30:39;;;;;;;34.57;18.97;;;0.80;99.90;;;;;;4955100;28;20031;-76
2022/01/10 05:33:07;;;;;;;28.80;18.10;;;0.90;99.90;;;;;;4949799;28;20035;-76
2022/01/10 05:35:47;;;;;;;30.80;16.33;;;0.90;99.90;;;;;;4954978;28;20023;-76
2022/01/10 05:38:14;;;;;;;31.70;16.87;;;0.90;99.90;;;;;;4953544;28;20023;-76
2022/01/10 05:40:41;;;;;;;29.60;17.83;;;0.90;99.90;;;;;;4954772;28;20034;-75
2022/01/10 05:43:09;;;;;;;28.50;16.87;;;0.90;99.90;;;;;;4933746;28;20022;-75
2022/01/10 05:45:36;;;;;;;36.93;17.97;;;0.90;99.90;;;;;;4952180;28;20027;-75
2022/01/10 05:48:09;;;;;;;30.07;16.53;;;0.90;99.90;;;;;;4953483;28;20042;-75
2022/01/10 05:50:37;;;;;;;27.80;16.20;;;1.00;99.90;;;;;;4922765;28;20038;-75
2022/01/10 05:53:10;;;;;;;23.43;15.00;;;0.90;99.90;;;;;;4948146;28;20034;-76
2022/01/10 05:55:37;;;;;;;26.87;14.87;;;0.90;99.90;;;;;;4938909;28;20027;-76
2022/01/10 05:58:06;;;;;;;27.97;16.20;;;0.90;99.90;;;;;;4952323;28;20022;-76
2022/01/10 06:00:35;;;;;;;23.67;14.57;;;0.90;99.90;;;;;;4970028;28;20031;-75
2022/01/10 06:03:02;;;;;;;33.27;16.60;;;0.90;99.90;;;;;;4948744;28;21488;-76
2022/01/10 06:05:36;;;;;;;27.48;15.57;;;0.90;99.90;;;;;;4936013;28;20031;-75
2022/01/10 06:08:07;;;;;;;26.92;15.73;;;0.90;99.90;;;;;;4953197;28;20362;-75
2022/01/10 06:10:36;;;;;;;26.63;16.00;;;1.00;99.90;;;;;;4954408;28;20026;-75
2022/01/10 06:13:25;;;;;;;27.57;15.27;;;1.00;99.90;;;;;;4943964;28;20035;-75
2022/01/10 06:15:52;;;;;;;24.93;15.07;;;1.00;99.90;;;;;;4955490;28;20027;-76
2022/01/10 06:18:19;;;;;;;28.57;16.80;;;1.00;99.90;;;;;;4951989;28;20019;-75
2022/01/10 06:20:46;;;;;;;29.67;15.93;;;1.10;99.90;;;;;;4937323;28;20039;-75
2022/01/10 06:23:13;;;;;;;31.60;16.53;;;1.10;99.90;;;;;;4947350;28;20137;-76
2022/01/10 06:25:41;;;;;;;29.40;17.80;;;1.10;99.90;;;;;;4953988;28;20038;-78
2022/01/10 06:28:08;;;;;;;27.30;17.00;;;1.00;99.90;;;;;;4936156;28;22813;-76
2022/01/10 06:30:35;;;;;;;27.30;16.63;;;1.10;99.90;;;;;;4949757;28;20064;-76
2022/01/10 06:33:03;;;;;;;29.63;17.57;;;1.10;99.90;;;;;;4931056;28;20413;-75
2022/01/10 06:35:30;;;;;;;32.13;17.20;;;1.10;99.90;;;;;;4952637;28;20021;-75
2022/01/10 06:37:56;;;;;;;29.90;17.07;;;1.10;99.90;;;;;;4938228;28;20054;-75
2022/01/10 06:40:23;;;;;;;29.17;17.03;;;1.10;99.90;;;;;;4953404;28;20023;-74
2022/01/10 06:42:50;;;;;;;32.17;18.60;;;1.10;99.90;;;;;;4948281;28;20042;-75
2022/01/10 06:45:18;;;;;;;34.13;18.43;;;1.10;99.90;;;;;;4949516;28;20042;-75
2022/01/10 06:47:46;;;;;;;43.23;20.83;;;1.10;99.90;;;;;;4935237;28;20027;-75
2022/01/10 06:50:13;;;;;;;36.83;19.70;;;1.10;99.90;;;;;;4937978;28;20034;-75
2022/01/10 06:52:43;;;;;;;32.10;18.83;;;1.00;99.90;;;;;;4947025;28;20020;-75
2022/01/10 06:55:10;;;;;;;34.80;18.97;;;1.00;99.90;;;;;;4951675;28;20033;-75
2022/01/10 06:57:38;;;;;;;27.50;17.80;;;1.00;99.90;;;;;;4949579;28;20475;-76
2022/01/10 07:00:07;;;;;;;32.27;17.73;;;1.00;99.90;;;;;;4937311;28;20037;-74
2022/01/10 07:02:41;;;;;;;31.20;18.07;;;1.00;99.90;;;;;;4947570;28;20103;-75
2022/01/10 07:05:08;;;;;;;26.80;16.73;;;1.00;99.90;;;;;;4949915;28;20025;-76
2022/01/10 07:07:34;;;;;;;30.73;18.90;;;1.00;99.90;;;;;;4934087;28;20039;-75
2022/01/10 07:10:11;;;;;;;30.47;18.57;;;1.10;99.90;;;;;;4953701;28;20026;-74
2022/01/10 07:12:37;;;;;;;31.13;18.27;;;1.10;99.90;;;;;;4930337;28;20043;-74
2022/01/10 07:15:08;;;;;;;30.30;16.47;;;1.10;99.90;;;;;;4950370;28;20031;-75
2022/01/10 07:17:35;;;;;;;38.00;23.57;;;1.10;99.90;;;;;;4937036;28;20031;-75
2022/01/10 07:20:05;;;;;;;34.43;19.47;;;1.10;99.90;;;;;;4951469;28;20027;-75
2022/01/10 07:22:36;;;;;;;32.40;21.08;;;1.20;99.90;;;;;;4929563;28;20467;-75
2022/01/10 07:25:05;;;;;;;37.97;21.33;;;1.20;99.90;;;;;;4949598;28;20027;-75
2022/01/10 07:27:31;;;;;;;29.03;19.50;;;1.20;99.90;;;;;;4953798;28;20034;-75
2022/01/10 07:29:59;;;;;;;31.73;18.73;;;1.20;99.90;;;;;;4953402;28;20050;-74
2022/01/10 07:32:29;;;;;;;27.30;17.57;;;1.20;99.90;;;;;;4950129;28;20035;-75
2022/01/10 07:34:56;;;;;;;35.67;18.67;;;1.20;99.90;;;;;;4952751;28;20015;-75
2022/01/10 07:37:23;;;;;;;30.37;18.33;;;1.10;99.90;;;;;;4944581;28;20027;-75
2022/01/10 07:39:50;;;;;;;36.57;19.43;;;1.10;99.90;;;;;;4945993;28;20023;-75
2022/01/10 07:42:17;;;;;;;32.10;19.60;;;1.20;99.90;;;;;;4947661;28;20473;-77
2022/01/10 07:44:52;;;;;;;34.93;18.33;;;1.20;99.90;;;;;;4951080;28;20034;-75
2022/01/10 07:47:19;;;;;;;34.57;20.53;;;1.20;99.90;;;;;;4935021;28;20035;-75
2022/01/10 07:49:46;;;;;;;50.07;23.23;;;1.20;99.90;;;;;;4952300;28;20023;-75
2022/01/10 07:52:12;;;;;;;42.20;23.50;;;1.20;99.90;;;;;;4947707;28;20042;-76
2022/01/10 07:54:39;;;;;;;39.37;21.93;;;1.20;99.90;;;;;;4952758;28;20046;-76
2022/01/10 07:57:05;;;;;;;32.07;21.10;;;1.20;99.90;;;;;;4947341;28;20043;-75
2022/01/10 07:59:32;;;;;;;36.90;21.70;;;1.20;99.90;;;;;;4935736;28;20495;-75
2022/01/10 08:01:59;;;;;;;33.93;19.20;;;1.20;99.90;;;;;;4931111;28;20035;-75
2022/01/10 08:04:25;;;;;;;33.83;21.20;;;1.20;99.90;;;;;;4954018;28;20031;-76
2022/01/10 08:06:51;;;;;;;41.23;21.47;;;1.30;99.90;;;;;;4954017;28;20042;-75
2022/01/10 08:09:18;;;;;;;31.30;20.47;;;1.30;99.90;;;;;;4944954;28;20042;-75
2022/01/10 08:11:44;;;;;;;33.63;19.33;;;1.30;99.90;;;;;;4974668;28;20035;-77
2022/01/10 08:14:11;;;;;;;37.10;21.43;;;1.40;99.90;;;;;;4937461;28;20034;-76
2022/01/10 08:16:37;;;;;;;38.00;22.37;;;1.40;99.90;;;;;;4952042;28;20037;-75
2022/01/10 08:19:03;;;;;;;36.17;22.03;;;1.50;99.90;;;;;;4957803;28;20394;-75
2022/01/10 08:21:30;;;;;;;42.47;23.67;;;1.50;99.90;;;;;;4957535;28;20031;-75
2022/01/10 08:23:57;;;;;;;46.57;26.43;;;1.60;99.90;;;;;;4954615;28;20038;-75
2022/01/10 08:26:23;;;;;;;43.60;25.90;;;1.60;99.90;;;;;;4972524;28;20027;-75
2022/01/10 08:28:50;;;;;;;39.73;24.03;;;1.60;99.90;;;;;;4952654;28;20198;-75
2022/01/10 08:31:16;;;;;;;40.37;23.87;;;1.70;99.90;;;;;;4953791;28;20039;-75
2022/01/10 08:33:45;;;;;;;36.57;21.07;;;1.70;99.90;;;;;;4951189;28;20067;-75
2022/01/10 08:36:12;;;;;;;42.13;22.57;;;1.70;99.90;;;;;;4954414;28;20053;-76
2022/01/10 08:38:39;;;;;;;40.20;22.53;;;1.80;99.90;;;;;;4956079;28;20034;-76
2022/01/10 08:41:06;;;;;;;38.70;21.07;;;1.90;99.90;;;;;;4955060;28;20022;-76
2022/01/10 08:43:32;;;;;;;42.17;24.30;;;2.00;99.90;;;;;;4951386;28;20031;-76
2022/01/10 08:45:59;;;;;;;43.37;24.57;;;2.00;99.90;;;;;;4956710;28;20232;-76
2022/01/10 08:48:25;;;;;;;40.50;22.67;;;2.00;99.90;;;;;;4954452;28;20035;-76
2022/01/10 08:50:52;;;;;;;37.50;22.57;;;2.10;99.90;;;;;;4953088;28;20837;-76
2022/01/10 08:53:18;;;;;;;42.57;21.23;;;2.10;99.90;;;;;;4950162;28;20514;-76
2022/01/10 08:55:45;;;;;;;37.63;23.70;;;2.20;99.90;;;;;;4950684;28;20031;-76
2022/01/10 08:58:11;;;;;;;44.10;25.73;;;2.20;99.90;;;;;;4948610;28;20034;-77
2022/01/10 09:00:38;;;;;;;43.83;27.20;;;2.20;99.90;;;;;;4952040;28;20363;-76
2022/01/10 09:03:04;;;;;;;41.27;24.13;;;2.20;99.90;;;;;;4949111;28;20022;-76
2022/01/10 09:05:32;;;;;;;42.67;25.17;;;2.30;99.90;;;;;;4954465;28;20038;-76
2022/01/10 09:08:01;;;;;;;41.37;25.07;;;2.30;99.90;;;;;;4955634;28;20031;-76
2022/01/10 09:10:28;;;;;;;42.37;23.67;;;2.40;99.90;;;;;;4971616;28;20026;-76
2022/01/10 09:12:55;;;;;;;42.43;24.87;;;2.40;99.90;;;;;;4949563;28;20042;-76
2022/01/10 09:15:22;;;;;;;38.27;23.33;;;2.50;99.90;;;;;;4951310;28;20019;-75
2022/01/10 09:17:49;;;;;;;42.97;24.17;;;2.60;99.90;;;;;;4951877;28;20031;-76
2022/01/10 09:20:15;;;;;;;42.93;26.20;;;2.60;99.90;;;;;;4955781;28;20027;-76
2022/01/10 09:22:41;;;;;;;44.27;26.40;;;2.70;99.90;;;;;;4951870;28;20039;-76
2022/01/10 09:25:08;;;;;;;42.37;25.37;;;2.80;99.90;;;;;;4955687;28;20030;-77
2022/01/10 09:27:34;;;;;;;44.73;26.67;;;2.80;99.90;;;;;;4954239;28;20031;-77
2022/01/10 09:30:02;;;;;;;41.70;25.23;;;2.90;99.90;;;;;;4955882;28;20046;-76
2022/01/10 09:32:28;;;;;;;39.00;24.33;;;2.90;99.90;;;;;;4950576;28;21445;-76
2022/01/10 09:34:55;;;;;;;38.87;25.03;;;2.90;99.90;;;;;;4955781;28;20022;-76
2022/01/10 09:37:22;;;;;;;42.27;25.67;;;3.00;99.90;;;;;;4953650;28;20031;-76
2022/01/10 09:39:48;;;;;;;40.30;26.30;;;3.00;99.90;;;;;;4952127;28;21222;-76
2022/01/10 09:42:15;;;;;;;37.83;25.70;;;3.00;99.90;;;;;;4949709;28;20388;-75
2022/01/10 09:44:42;;;;;;;39.07;25.80;;;3.10;99.90;;;;;;4953589;28;20031;-76
2022/01/10 09:47:08;;;;;;;42.90;24.67;;;3.10;99.90;;;;;;4952825;28;20363;-75
2022/01/10 09:49:34;;;;;;;36.27;25.10;;;3.20;99.90;;;;;;4952833;28;21319;-75
2022/01/10 09:52:01;;;;;;;36.70;24.07;;;3.30;99.90;;;;;;4948442;28;20470;-76
2022/01/10 09:54:27;;;;;;;42.73;25.13;;;3.30;99.90;;;;;;4948858;28;20030;-76
2022/01/10 09:56:54;;;;;;;41.97;25.90;;;3.30;99.90;;;;;;4952538;28;20023;-76
2022/01/10 09:59:20;;;;;;;44.83;28.40;;;3.50;99.90;;;;;;4953392;28;20508;-76
2022/01/10 10:01:51;;;;;;;41.67;27.43;;;3.60;99.90;;;;;;4952868;28;20391;-76
2022/01/10 10:04:18;;;;;;;44.17;28.00;;;3.70;99.90;;;;;;4934876;28;20035;-76
2022/01/10 10:06:45;;;;;;;44.37;27.07;;;3.80;99.90;;;;;;4954340;28;20620;-76
2022/01/10 10:09:12;;;;;;;41.17;25.73;;;3.90;99.90;;;;;;4953505;28;20027;-76
2022/01/10 10:11:44;;;;;;;190.57;27.60;;;4.10;99.90;;;;;;4952361;28;20045;-76
2022/01/10 10:14:13;;;;;;;329.80;30.83;;;4.40;99.90;;;;;;4930056;28;20030;-76
2022/01/10 10:16:47;;;;;;;35.92;18.80;;;4.80;99.90;;;;;;4954952;28;20019;-75
2022/01/10 10:19:15;;;;;;;28.58;18.35;;;5.10;99.90;;;;;;4938726;28;20035;-75
2022/01/10 10:21:41;;;;;;;31.02;18.50;;;5.30;99.90;;;;;;4953339;28;20482;-76
2022/01/10 10:24:08;;;;;;;26.42;18.85;;;5.40;99.90;;;;;;4949204;28;20027;-76
2022/01/10 10:26:35;;;;;;;29.88;19.60;;;5.50;99.90;;;;;;4954927;28;20018;-77
2022/01/10 10:29:02;;;;;;;35.88;20.95;;;5.50;99.90;;;;;;4950929;28;20307;-76
2022/01/10 10:31:35;;;;;;;31.42;21.15;;;5.50;99.90;;;;;;4953193;28;20054;-76
2022/01/10 10:34:04;;;;;;;38.10;22.70;;;5.50;99.90;;;;;;4948429;28;20431;-76
2022/01/10 10:36:33;;;;;;;33.80;22.33;;;5.40;99.90;;;;;;4949259;28;20026;-76
2022/01/10 10:39:03;;;;;;;38.30;25.30;;;5.30;99.90;;;;;;4952039;28;20414;-76
2022/01/10 10:41:30;;;;;;;39.92;24.42;;;5.20;99.90;;;;;;4954159;28;20019;-76
2022/01/10 10:43:56;;;;;;;41.33;23.33;;;5.10;99.90;;;;;;4946935;28;20501;-76
2022/01/10 10:46:26;;;;;;;33.63;23.33;;;5.00;99.90;;;;;;4953368;28;20058;-76
2022/01/10 10:49:04;;;;;;;39.65;25.17;;;4.90;99.90;;;;;;4954588;28;20026;-76
2022/01/10 10:51:34;;;;;;;37.03;23.38;;;4.80;99.90;;;;;;4953256;28;20035;-76
2022/01/10 10:54:06;;;;;;;40.08;25.20;;;4.70;99.90;;;;;;4948523;28;20015;-76
2022/01/10 10:56:35;;;;;;;39.53;25.73;;;4.60;99.90;;;;;;4952394;28;20023;-76
2022/01/10 10:59:02;;;;;;;39.78;25.05;;;4.60;99.90;;;;;;4950954;28;20475;-76
2022/01/10 11:01:29;;;;;;;42.90;26.10;;;4.60;99.90;;;;;;4967062;28;20019;-76
2022/01/10 11:03:55;;;;;;;47.55;27.88;;;4.50;99.90;;;;;;4930091;28;20031;-76
2022/01/10 11:06:23;;;;;;;41.28;28.27;;;4.50;99.90;;;;;;4949114;28;20035;-76
2022/01/10 11:08:49;;;;;;;43.38;27.45;;;4.40;99.90;;;;;;4953435;28;20023;-76
2022/01/10 11:11:21;;;;;;;40.53;28.17;;;4.40;99.90;;;;;;4950718;28;20390;-76
2022/01/10 11:13:50;;;;;;;46.38;27.95;;;4.40;99.90;;;;;;4949343;28;20034;-76
2022/01/10 11:16:17;;;;;;;50.80;32.15;;;4.30;99.90;;;;;;4951947;28;20018;-76
2022/01/10 11:18:44;;;;;;;43.50;27.17;;;4.30;99.90;;;;;;4951303;28;20019;-76
2022/01/10 11:21:11;;;;;;;39.05;25.95;;;4.20;99.90;;;;;;4949656;28;20027;-76
2022/01/10 11:23:44;;;;;;;46.78;28.65;;;4.20;99.90;;;;;;4946115;28;20026;-76
2022/01/10 11:26:15;;;;;;;41.25;27.42;;;4.20;99.90;;;;;;4948400;28;20356;-73
2022/01/10 11:28:54;;;;;;;39.28;27.13;;;4.20;99.90;;;;;;4949523;28;20034;-73
2022/01/10 11:31:26;;;;;;;40.05;26.95;;;4.20;99.90;;;;;;4952039;28;20513;-73
2022/01/10 11:33:54;;;;;;;43.00;26.63;;;4.20;99.90;;;;;;4948117;28;20115;-74
2022/01/10 11:36:24;;;;;;;42.88;26.45;;;4.20;99.90;;;;;;4951272;28;20019;-74
2022/01/10 11:38:59;;;;;;;42.78;26.95;;;4.20;99.90;;;;;;4947367;28;20026;-73
2022/01/10 11:41:31;;;;;;;45.03;28.77;;;4.20;99.90;;;;;;4946530;28;20394;-73
2022/01/10 11:44:10;;;;;;;46.30;27.75;;;4.30;99.90;;;;;;4939674;28;20027;-73
2022/01/10 11:46:37;;;;;;;44.13;27.63;;;4.30;99.90;;;;;;4946389;28;20121;-73
2022/01/10 11:49:09;;;;;;;42.47;26.85;;;4.30;99.90;;;;;;4949116;28;20030;-73
2022/01/10 11:51:37;;;;;;;34.40;22.60;;;4.30;99.90;;;;;;4932521;28;20026;-74
2022/01/10 11:54:26;;;;;;;47.10;27.55;;;4.40;99.90;;;;;;4944445;28;20027;-72
2022/01/10 11:56:56;;;;;;;41.20;25.38;;;4.40;99.90;;;;;;4949015;28;20031;-73
2022/01/10 11:59:26;;;;;;;43.85;27.45;;;4.40;99.90;;;;;;4949207;28;20027;-73
2022/01/10 12:01:59;;;;;;;42.50;25.70;;;4.40;99.90;;;;;;4949844;28;20027;-73
2022/01/10 12:04:28;;;;;;;54.88;31.80;;;4.50;99.90;;;;;;4965872;28;20038;-74
2022/01/10 12:06:55;;;;;;;42.83;26.95;;;4.50;99.90;;;;;;4949931;28;20023;-73
2022/01/10 12:09:22;;;;;;;45.53;29.00;;;4.50;99.90;;;;;;4951755;28;20024;-73
2022/01/10 12:11:51;;;;;;;44.95;27.63;;;4.60;99.90;;;;;;4949841;28;20037;-75
2022/01/10 12:14:19;;;;;;;40.33;25.75;;;4.60;99.90;;;;;;4947475;28;20026;-73
2022/01/10 12:16:45;;;;;;;46.00;30.85;;;4.60;99.90;;;;;;4944908;28;20052;-75
2022/01/10 12:19:12;;;;;;;54.28;31.83;;;4.60;99.90;;;;;;4947455;28;20023;-73
2022/01/10 12:21:39;;;;;;;43.83;27.10;;;4.60;99.90;;;;;;4946793;28;20482;-74
2022/01/10 12:24:06;;;;;;;44.83;28.92;;;4.60;99.90;;;;;;4944132;28;20356;-73
2022/01/10 12:26:36;;;;;;;48.88;27.65;;;4.70;99.90;;;;;;4946002;28;20518;-73
2022/01/10 12:29:04;;;;;;;51.88;30.27;;;4.60;99.90;;;;;;4938446;28;20051;-72
2022/01/10 12:31:33;;;;;;;40.63;25.67;;;4.70;99.90;;;;;;4939426;28;20042;-73
2022/01/10 12:34:01;;;;;;;43.58;26.15;;;4.70;99.90;;;;;;4944458;28;20032;-73
2022/01/10 12:36:29;;;;;;;52.22;31.65;;;4.70;99.90;;;;;;4951340;28;20020;-73
2022/01/10 12:38:59;;;;;;;60.17;37.95;;;4.70;99.90;;;;;;4948961;28;20486;-73
2022/01/10 12:41:27;;;;;;;43.17;27.25;;;4.70;99.90;;;;;;4947986;28;20022;-72
2022/01/10 12:43:54;;;;;;;48.78;30.80;;;4.70;99.90;;;;;;4940283;28;20054;-72
2022/01/10 12:46:22;;;;;;;35.22;23.33;;;4.70;99.90;;;;;;4944034;28;20394;-73
2022/01/10 12:48:51;;;;;;;34.88;24.27;;;4.80;99.90;;;;;;4944094;28;20027;-73
2022/01/10 12:51:21;;;;;;;49.22;31.15;;;4.80;99.90;;;;;;4951242;28;20374;-73
2022/01/10 12:53:51;;;;;;;49.53;29.25;;;4.80;99.90;;;;;;4951524;28;20031;-72